Time;durP1;ratioP1;P1;durP2;ratioP2;P2;SDS_P1;SDS_P2;PMS_P1;PMS_P2;Temp;Humidity;BMP_temperature;BMP_pressure;BME280_temperature;BME280_humidity;BME280_pressure;Samples;Min_cycle;Max_cycle;Signal;HPM_P1;HPM_P2
2021/03/19 00:00:42;;;;;;;7.20;3.42;;;;;;;4.49;68.62;100231.97;4993760;28;20050;-85
2021/03/19 00:03:08;;;;;;;6.80;3.60;;;;;;;4.48;68.45;100235.47;4992640;28;20054;-85
2021/03/19 00:05:35;;;;;;;6.45;3.67;;;;;;;4.46;68.15;100238.13;4992730;28;20053;-85
2021/03/19 00:08:02;;;;;;;6.15;3.80;;;;;;;4.44;68.26;100242.50;4992265;28;20051;-85
2021/03/19 00:10:31;;;;;;;5.78;3.63;;;;;;;4.41;68.21;100243.44;4993847;28;20050;-85
2021/03/19 00:13:09;;;;;;;10.05;3.85;;;;;;;4.36;68.04;100236.59;4992501;28;20061;-85
2021/03/19 00:15:37;;;;;;;10.05;4.07;;;;;;;4.36;68.28;100234.00;4992394;28;20069;-85
2021/03/19 00:18:05;;;;;;;9.57;4.18;;;;;;;4.33;68.31;100253.16;4993609;28;20056;-85
2021/03/19 00:20:37;;;;;;;7.13;3.97;;;;;;;4.31;68.55;100241.94;4993731;28;20112;-85
2021/03/19 00:23:05;;;;;;;6.63;3.85;;;;;;;4.29;68.20;100248.91;4991770;28;20050;-85
2021/03/19 00:25:35;;;;;;;6.22;3.60;;;;;;;4.27;68.56;100245.50;4993260;28;20046;-85
2021/03/19 00:28:02;;;;;;;5.75;3.67;;;;;;;4.25;68.54;100239.47;4992633;28;20054;-85
2021/03/19 00:30:29;;;;;;;7.93;3.38;;;;;;;4.23;68.53;100252.50;4992498;28;20508;-85
2021/03/19 00:32:55;;;;;;;6.70;3.72;;;;;;;4.21;68.27;100254.31;4992143;28;20054;-87
2021/03/19 00:35:22;;;;;;;5.63;4.07;;;;;;;4.18;67.95;100259.59;4993365;28;20050;-87
2021/03/19 00:37:48;;;;;;;6.82;3.92;;;;;;;4.15;68.02;100249.25;4992465;28;20058;-85
2021/03/19 00:40:15;;;;;;;8.18;3.90;;;;;;;4.13;68.14;100261.44;4993295;28;20058;-85
2021/03/19 00:42:42;;;;;;;7.10;4.20;;;;;;;4.09;68.19;100259.78;4992434;28;20137;-85
2021/03/19 00:45:12;;;;;;;8.63;4.13;;;;;;;4.05;68.07;100261.63;4993327;28;20050;-85
2021/03/19 00:47:39;;;;;;;8.73;4.40;;;;;;;4.03;68.41;100258.19;4992252;28;20054;-85
2021/03/19 00:50:12;;;;;;;7.80;3.88;;;;;;;4.00;68.40;100261.72;4993526;28;20050;-85
2021/03/19 00:52:39;;;;;;;8.68;4.40;;;;;;;3.98;68.22;100263.50;4995421;28;20050;-87
2021/03/19 00:55:08;;;;;;;5.28;3.83;;;;;;;3.96;68.50;100261.81;4995402;28;20073;-85
2021/03/19 00:57:34;;;;;;;10.65;4.22;;;;;;;3.94;68.42;100261.84;4995277;28;20523;-85
2021/03/19 01:00:00;;;;;;;8.60;4.57;;;;;;;3.91;68.42;100254.09;4995617;28;20050;-85
2021/03/19 01:02:27;;;;;;;6.50;4.13;;;;;;;3.89;68.14;100251.50;4995722;28;20050;-85
2021/03/19 01:04:54;;;;;;;7.97;4.40;;;;;;;3.86;68.31;100248.13;4995473;28;20050;-85
2021/03/19 01:07:20;;;;;;;7.82;4.38;;;;;;;3.85;68.55;100246.44;4995896;28;20047;-85
2021/03/19 01:09:46;;;;;;;8.75;4.35;;;;;;;3.83;68.13;100250.78;4995430;28;20046;-85
2021/03/19 01:12:13;;;;;;;10.00;4.30;;;;;;;3.80;68.53;100249.13;4995074;28;20053;-85
2021/03/19 01:14:39;;;;;;;10.20;4.38;;;;;;;3.77;68.33;100256.97;4994862;28;20046;-85
2021/03/19 01:17:05;;;;;;;7.32;4.50;;;;;;;3.73;68.78;100256.19;4996813;28;20077;-85
2021/03/19 01:19:32;;;;;;;6.75;4.35;;;;;;;3.72;68.32;100257.09;4996624;28;20050;-87
2021/03/19 01:21:59;;;;;;;9.07;4.60;;;;;;;3.69;68.32;100254.53;4996473;28;20050;-87
2021/03/19 01:24:25;;;;;;;11.35;4.38;;;;;;;3.68;68.52;100259.78;4994791;28;20512;-85
2021/03/19 01:26:51;;;;;;;7.93;4.50;;;;;;;3.66;68.37;100270.22;4996474;28;20054;-86
2021/03/19 01:29:18;;;;;;;8.38;4.40;;;;;;;3.65;68.51;100265.91;4995712;28;20057;-85
2021/03/19 01:31:44;;;;;;;10.68;4.93;;;;;;;3.63;68.57;100270.28;4996205;28;20050;-85
2021/03/19 01:34:11;;;;;;;8.02;4.10;;;;;;;3.61;68.73;100262.50;4995755;28;20066;-85
2021/03/19 01:36:37;;;;;;;6.90;4.65;;;;;;;3.60;68.65;100268.63;4995133;28;20084;-85
2021/03/19 01:39:04;;;;;;;6.70;4.10;;;;;;;3.59;68.88;100261.66;4996032;28;20054;-85
2021/03/19 01:41:30;;;;;;;9.00;4.53;;;;;;;3.59;68.78;100268.66;4994978;28;20054;-85
2021/03/19 01:43:59;;;;;;;14.85;4.60;;;;;;;3.57;68.71;100273.88;4995926;28;20493;-85
2021/03/19 01:47:02;;;;;;;9.25;4.65;;;;;;;3.52;68.19;100268.75;4995766;28;20046;-85
2021/03/19 01:50:06;;;;;;;9.07;4.68;;;;;;;3.50;67.73;100278.34;4994779;28;20126;-86
2021/03/19 01:53:10;;;;;;;8.00;3.83;;;;;;;3.49;68.13;100283.56;4996001;28;20046;-87
2021/03/19 01:56:14;;;;;;;9.73;4.78;;;;;;;3.48;68.27;100290.50;4994612;28;20054;-85
2021/03/19 01:59:37;;;;;;;11.73;4.63;;;;;;;3.46;68.33;100296.63;4994623;28;20042;-88
2021/03/19 02:02:40;;;;;;;11.50;4.95;;;;;;;3.45;67.98;100297.53;4993441;28;20616;-87
2021/03/19 02:05:44;;;;;;;9.27;4.35;;;;;;;3.43;68.40;100301.91;4976407;28;20145;-86
2021/03/19 02:08:48;;;;;;;9.13;4.72;;;;;;;3.40;68.50;100308.00;4994461;28;20050;-87
2021/03/19 02:11:32;;;;;;;;;;;;;;;3.41;68.39;100307.16;4996015;28;20055;-85
2021/03/19 02:14:36;;;;;;;6.35;4.20;;;;;;;3.37;68.24;100311.53;4995008;28;19922;-85
2021/03/19 02:17:40;;;;;;;7.70;4.45;;;;;;;3.34;68.08;100319.41;4994294;28;20054;-87
2021/03/19 02:20:44;;;;;;;8.30;4.57;;;;;;;3.32;68.29;100325.53;4994807;28;20062;-87
2021/03/19 02:23:28;;;;;;;;;;;;;;;3.32;68.09;100325.53;4994745;28;20058;-85
2021/03/19 02:26:32;;;;;;;8.63;4.38;;;;;;;3.28;68.22;100319.50;4993620;28;19976;-85
2021/03/19 02:29:36;;;;;;;7.78;4.20;;;;;;;3.23;67.82;100318.75;4975603;28;20090;-86
2021/03/19 02:32:14;;;;;;;7.40;4.53;;;;;;;3.20;68.07;100310.97;4976079;28;20043;-86
2021/03/19 02:34:51;;;;;;;8.98;4.47;;;;;;;3.18;68.72;100318.81;4977747;28;20141;-87
2021/03/19 02:37:27;;;;;;;6.80;4.78;;;;;;;3.17;68.50;100326.66;4995124;28;20050;-87
2021/03/19 02:39:54;;;;;;;7.07;4.50;;;;;;;3.18;68.96;100331.81;4994835;28;20046;-87
2021/03/19 02:42:24;;;;;;;8.30;4.57;;;;;;;3.17;69.00;100330.09;4994973;28;20124;-86
2021/03/19 02:44:51;;;;;;;6.60;4.32;;;;;;;3.18;68.99;100331.81;4993461;28;20050;-86
2021/03/19 02:47:17;;;;;;;9.57;4.65;;;;;;;3.18;69.16;100336.19;4993712;28;20061;-87
2021/03/19 02:49:44;;;;;;;8.60;4.78;;;;;;;3.18;69.21;100333.56;4994728;28;20062;-87
2021/03/19 02:52:22;;;;;;;10.07;4.93;;;;;;;3.17;68.65;100335.31;4994337;28;20053;-87
2021/03/19 02:54:49;;;;;;;8.83;3.80;;;;;;;3.20;69.16;100334.38;4994303;28;20050;-87
2021/03/19 02:57:16;;;;;;;8.73;4.75;;;;;;;3.19;68.99;100341.34;4993573;28;20281;-87
2021/03/19 02:59:42;;;;;;;8.38;4.65;;;;;;;3.19;69.11;100341.34;4994527;28;20085;-87
2021/03/19 03:02:08;;;;;;;8.57;4.43;;;;;;;3.18;69.18;100346.59;4994509;28;20077;-87
2021/03/19 03:04:35;;;;;;;9.18;4.35;;;;;;;3.17;68.91;100356.13;4992538;28;20046;-87
2021/03/19 03:07:01;;;;;;;7.38;4.72;;;;;;;3.16;69.17;100351.81;4993186;28;20061;-87
2021/03/19 03:09:30;;;;;;;7.50;4.38;;;;;;;3.15;68.30;100354.44;4993322;28;20053;-87
2021/03/19 03:11:57;;;;;;;10.68;4.32;;;;;;;3.16;68.86;100350.94;4993360;28;20496;-87
2021/03/19 03:14:26;;;;;;;9.20;4.82;;;;;;;3.14;68.48;100356.16;4994119;28;20158;-87
2021/03/19 03:16:58;;;;;;;8.98;5.05;;;;;;;3.14;68.30;100361.38;4993956;28;20416;-87
2021/03/19 03:19:25;;;;;;;8.43;4.82;;;;;;;3.16;68.66;100358.75;4993769;28;20062;-87
2021/03/19 03:21:52;;;;;;;10.57;4.32;;;;;;;3.16;68.61;100367.41;4994389;28;20415;-87
2021/03/19 03:24:20;;;;;;;7.88;4.70;;;;;;;3.15;68.74;100370.91;4993928;28;20050;-87
2021/03/19 03:26:46;;;;;;;10.40;4.50;;;;;;;3.15;68.70;100375.25;4994142;28;20054;-87
2021/03/19 03:29:13;;;;;;;9.02;4.20;;;;;;;3.12;68.47;100373.56;4994239;28;20050;-87
2021/03/19 03:31:40;;;;;;;6.88;4.40;;;;;;;3.12;68.63;100377.03;4993000;28;20485;-87
2021/03/19 03:34:07;;;;;;;10.80;5.00;;;;;;;3.11;68.55;100379.66;5034489;23;20580;-85
2021/03/19 03:36:34;;;;;;;21.75;5.22;;;;;;;3.10;68.60;100381.38;4993155;28;20057;-86
2021/03/19 03:39:06;;;;;;;8.00;4.88;;;;;;;3.10;68.30;100388.34;4993133;28;20052;-88
2021/03/19 03:41:33;;;;;;;9.02;4.50;;;;;;;3.09;68.91;100384.88;4993001;28;20057;-86
2021/03/19 03:43:59;;;;;;;8.70;4.53;;;;;;;3.11;69.18;100387.44;4993834;28;20056;-85
2021/03/19 03:46:27;;;;;;;6.38;4.22;;;;;;;3.11;69.29;100390.06;4993100;28;20481;-85
2021/03/19 03:48:55;;;;;;;6.95;4.47;;;;;;;3.13;68.80;100401.28;4993061;28;20061;-87
2021/03/19 03:51:24;;;;;;;10.32;5.05;;;;;;;3.14;68.58;100400.38;4985148;28;20057;-87
2021/03/19 03:53:51;;;;;;;9.15;4.88;;;;;;;3.15;68.78;100402.13;4973126;28;20051;-87
2021/03/19 03:56:18;;;;;;;8.82;4.88;;;;;;;3.16;68.65;100405.56;4974501;28;20505;-87
2021/03/19 03:58:44;;;;;;;10.07;4.90;;;;;;;3.16;68.55;100405.56;4975982;28;20050;-87
2021/03/19 04:01:11;;;;;;;7.97;4.43;;;;;;;3.15;68.13;100409.94;4974334;28;20050;-87
2021/03/19 04:03:38;;;;;;;10.48;4.95;;;;;;;3.12;68.54;100408.25;4973033;28;20105;-87
2021/03/19 04:06:06;;;;;;;12.18;4.88;;;;;;;3.12;68.43;100408.25;4990656;28;20124;-87
2021/03/19 04:08:33;;;;;;;9.50;4.68;;;;;;;3.10;68.38;100410.00;4974657;28;20066;-87
2021/03/19 04:11:02;;;;;;;7.13;4.28;;;;;;;3.08;68.22;100410.91;4992171;28;20057;-88
2021/03/19 04:13:30;;;;;;;10.05;4.45;;;;;;;3.07;68.29;100411.78;5008943;28;20125;-88
2021/03/19 04:15:57;;;;;;;10.95;4.55;;;;;;;3.06;67.95;100410.06;4993487;28;20047;-88
2021/03/19 04:18:24;;;;;;;8.05;4.60;;;;;;;3.03;67.99;100413.56;4994182;28;20054;-88
2021/03/19 04:20:54;;;;;;;10.90;4.88;;;;;;;3.02;67.89;100417.03;4984474;28;20051;-88
2021/03/19 04:23:30;;;;;;;10.93;4.50;;;;;;;2.99;68.28;100419.72;4973417;28;20417;-88
2021/03/19 04:25:58;;;;;;;8.00;4.50;;;;;;;2.99;68.21;100419.72;4973887;28;20498;-88
2021/03/19 04:28:31;;;;;;;7.70;4.40;;;;;;;2.96;67.47;100433.59;4976820;28;20086;-87
2021/03/19 04:30:59;;;;;;;7.28;4.82;;;;;;;2.96;68.01;100428.41;4977144;28;20055;-87
2021/03/19 04:33:26;;;;;;;8.15;4.22;;;;;;;2.95;68.49;100428.44;4976754;28;20050;-87
2021/03/19 04:36:08;;;;;;;10.20;5.00;;;;;;;2.92;67.57;100436.28;4993544;28;20051;-88
2021/03/19 04:38:36;;;;;;;6.43;4.25;;;;;;;2.93;67.83;100433.66;4996319;28;20062;-87
2021/03/19 04:41:04;;;;;;;7.07;4.38;;;;;;;2.91;68.14;100440.59;4996017;28;20054;-87
2021/03/19 04:43:32;;;;;;;7.90;4.60;;;;;;;2.89;68.02;100437.19;4996069;28;20053;-87
2021/03/19 04:45:59;;;;;;;7.63;5.00;;;;;;;2.89;68.34;100446.72;4995733;28;20052;-87
2021/03/19 04:48:25;;;;;;;9.73;5.10;;;;;;;2.85;68.19;100449.34;4997257;28;20102;-87
2021/03/19 04:50:51;;;;;;;10.07;4.35;;;;;;;2.85;68.36;100446.75;4992461;28;20043;-87
2021/03/19 04:53:17;;;;;;;7.07;4.22;;;;;;;2.84;68.40;100449.41;4997187;28;20061;-88
2021/03/19 04:55:43;;;;;;;7.07;3.88;;;;;;;2.83;67.80;100445.94;4996662;28;20057;-87
2021/03/19 04:58:10;;;;;;;7.68;4.65;;;;;;;2.80;68.18;100440.75;4995836;28;20489;-87
2021/03/19 05:00:37;;;;;;;9.50;4.15;;;;;;;2.80;68.34;100448.56;4996163;28;20050;-87
2021/03/19 05:03:03;;;;;;;6.10;4.18;;;;;;;2.79;67.98;100457.25;4997094;28;20105;-87
2021/03/19 05:05:32;;;;;;;7.30;4.25;;;;;;;2.78;68.12;100457.25;4996974;28;20093;-87
2021/03/19 05:08:00;;;;;;;8.40;4.20;;;;;;;2.78;68.32;100465.06;4995424;28;20057;-87
2021/03/19 05:10:34;;;;;;;7.90;4.57;;;;;;;2.74;67.74;100464.25;5011945;28;20485;-87
2021/03/19 05:13:03;;;;;;;9.48;4.63;;;;;;;2.75;68.66;100465.97;4995493;28;20092;-87
2021/03/19 05:15:31;;;;;;;7.30;3.80;;;;;;;2.74;67.98;100469.47;4996646;28;20053;-88
2021/03/19 05:17:57;;;;;;;8.63;4.10;;;;;;;2.73;67.79;100471.19;4996858;28;20054;-87
2021/03/19 05:20:25;;;;;;;11.23;4.70;;;;;;;2.73;68.14;100467.75;4996351;28;20078;-88
2021/03/19 05:22:51;;;;;;;7.28;4.40;;;;;;;2.72;68.12;100463.41;5011297;28;20054;-89
2021/03/19 05:25:22;;;;;;;6.80;4.20;;;;;;;2.71;67.77;100472.09;4994517;28;20065;-89
2021/03/19 05:27:50;;;;;;;9.55;4.90;;;;;;;2.70;68.12;100473.81;5011389;28;20046;-89
2021/03/19 05:30:17;;;;;;;6.88;4.20;;;;;;;2.71;68.21;100479.88;4996610;28;20046;-89
2021/03/19 05:32:43;;;;;;;10.27;4.72;;;;;;;2.70;68.11;100478.16;4995238;28;20046;-89
2021/03/19 05:35:12;;;;;;;6.88;4.35;;;;;;;2.69;67.76;100486.84;4995100;28;20053;-89
2021/03/19 05:37:39;;;;;;;5.68;3.97;;;;;;;2.69;68.28;100484.25;5010737;28;20054;-89
2021/03/19 05:40:11;;;;;;;7.50;3.90;;;;;;;2.68;67.79;100495.50;4989800;28;20050;-89
2021/03/19 05:42:38;;;;;;;7.22;4.05;;;;;;;2.69;68.06;100495.50;4976910;28;20050;-89
2021/03/19 05:45:31;;;;;;;6.72;4.18;;;;;;;2.66;67.41;100492.97;4975164;28;20043;-89
2021/03/19 05:47:58;;;;;;;9.52;4.07;;;;;;;2.69;68.14;100489.47;4973823;28;20058;-89
2021/03/19 05:50:27;;;;;;;7.30;3.58;;;;;;;2.69;67.71;100500.69;4975421;28;20053;-89
2021/03/19 05:52:54;;;;;;;9.80;4.00;;;;;;;2.68;68.37;100496.38;4976708;28;20050;-89
2021/03/19 05:55:23;;;;;;;6.00;3.80;;;;;;;2.67;67.29;100497.28;4976128;28;20043;-89
2021/03/19 05:57:57;;;;;;;12.10;4.28;;;;;;;2.66;67.44;100502.47;4977368;28;20062;-89
2021/03/19 06:00:27;;;;;;;7.15;4.43;;;;;;;2.67;67.90;100505.06;4975378;28;20520;-88
2021/03/19 06:02:54;;;;;;;6.47;3.72;;;;;;;2.67;68.26;100515.47;4975355;28;20134;-89
2021/03/19 06:05:22;;;;;;;6.40;3.92;;;;;;;2.69;68.31;100503.28;4975012;28;20113;-89
2021/03/19 06:07:57;;;;;;;5.85;3.38;;;;;;;2.68;67.87;100506.78;4975620;28;20075;-88
2021/03/19 06:10:29;;;;;;;6.75;4.05;;;;;;;2.70;68.25;100507.59;4974985;28;20073;-88
2021/03/19 06:13:21;;;;;;;5.50;3.03;;;;;;;2.68;67.78;100509.38;4975936;28;20046;-89
2021/03/19 06:15:50;;;;;;;11.80;3.67;;;;;;;2.72;67.48;100508.47;4976024;28;20413;-88
2021/03/19 06:18:41;;;;;;;5.60;3.80;;;;;;;2.71;67.50;100513.69;4975013;28;20137;-88
2021/03/19 06:21:22;;;;;;;7.35;3.88;;;;;;;2.73;67.17;100506.75;4975057;28;20061;-88
2021/03/19 06:24:24;;;;;;;6.38;4.32;;;;;;;2.74;66.75;100518.84;4974721;28;20097;-88
2021/03/19 06:26:52;;;;;;;4.63;3.33;;;;;;;2.78;68.21;100509.25;4976014;28;20135;-88
2021/03/19 06:29:42;;;;;;;5.47;3.40;;;;;;;2.77;68.10;100511.03;4978761;28;20042;-87
2021/03/19 06:32:20;;;;;;;4.88;3.13;;;;;;;2.78;67.58;100523.13;4995466;28;20064;-88
2021/03/19 06:34:56;;;;;;;8.23;4.15;;;;;;;2.82;67.37;100523.94;4994101;28;20070;-88
2021/03/19 06:37:32;;;;;;;8.65;3.83;;;;;;;2.81;67.73;100528.28;4993933;28;20046;-88
2021/03/19 06:40:03;;;;;;;8.73;4.05;;;;;;;2.86;68.16;100528.22;4995299;28;20065;-88
2021/03/19 06:42:33;;;;;;;5.25;3.75;;;;;;;2.89;67.91;100530.81;4994002;28;20056;-88
2021/03/19 06:45:15;;;;;;;9.77;3.95;;;;;;;2.90;67.97;100535.13;4994144;28;20050;-89
2021/03/19 06:47:54;;;;;;;5.63;3.80;;;;;;;2.90;67.65;100535.13;4975672;28;20051;-88
2021/03/19 06:50:23;;;;;;;7.18;3.75;;;;;;;2.94;67.71;100538.53;4973980;28;20051;-88
2021/03/19 06:53:22;;;;;;;6.32;3.78;;;;;;;2.94;67.49;100536.81;4974399;28;20053;-88
2021/03/19 06:55:55;;;;;;;6.85;3.05;;;;;;;2.98;68.00;100540.22;4974363;28;20097;-87
2021/03/19 06:58:38;;;;;;;6.47;3.05;;;;;;;2.97;67.31;100544.56;4975395;28;20513;-87
2021/03/19 07:01:14;;;;;;;5.90;3.28;;;;;;;3.02;67.42;100556.66;4974015;28;20054;-87
2021/03/19 07:03:56;;;;;;;3.63;2.90;;;;;;;3.06;68.17;100568.75;4977292;28;20133;-86
2021/03/19 07:06:28;;;;;;;6.10;3.60;;;;;;;3.08;67.35;100566.97;4974069;28;20485;-87
2021/03/19 07:08:54;;;;;;;4.93;3.30;;;;;;;3.11;68.35;100569.53;4975121;28;20066;-87
2021/03/19 07:11:38;;;;;;;7.25;4.07;;;;;;;3.14;68.17;100577.28;4975242;28;20054;-87
2021/03/19 07:14:20;;;;;;;9.38;4.20;;;;;;;3.15;67.60;100588.56;4974787;28;20062;-88
2021/03/19 07:17:11;;;;;;;4.35;3.08;;;;;;;3.21;68.25;100580.69;4975335;28;20050;-87
2021/03/19 07:20:19;;;;;;;5.05;3.92;;;;;;;3.22;67.42;100595.41;4993177;28;20046;-87
2021/03/19 07:23:04;;;;;;;5.60;3.25;;;;;;;3.25;67.71;100596.22;4994280;28;20054;-87
2021/03/19 07:25:42;;;;;;;6.80;3.22;;;;;;;3.33;68.33;100603.09;4993080;28;20559;-87
2021/03/19 07:28:54;;;;;;;6.28;3.88;;;;;;;3.32;67.07;100607.41;4993351;28;20054;-88
2021/03/19 07:31:39;;;;;;;6.18;3.65;;;;;;;3.40;68.17;100609.91;4985845;28;20054;-87
2021/03/19 07:34:25;;;;;;;5.68;3.67;;;;;;;3.43;66.85;100609.03;4987027;28;20528;-87
2021/03/19 07:37:11;;;;;;;5.38;3.55;;;;;;;3.49;68.21;100611.53;4994108;28;20050;-87
2021/03/19 07:39:45;;;;;;;5.50;3.35;;;;;;;3.52;68.28;100609.75;4973352;28;20058;-88
2021/03/19 07:42:21;;;;;;;6.90;3.67;;;;;;;3.55;67.87;100608.00;4994467;28;20054;-87
2021/03/19 07:45:00;;;;;;;8.07;3.60;;;;;;;3.57;67.33;100616.63;4992619;28;20090;-88
2021/03/19 07:48:01;;;;;;;6.35;3.45;;;;;;;3.59;66.81;100620.94;4992852;28;20046;-88
2021/03/19 07:50:31;;;;;;;6.55;3.35;;;;;;;3.66;68.40;100624.31;4990054;28;20516;-87
2021/03/19 07:53:16;;;;;;;8.07;3.65;;;;;;;3.69;68.43;100621.66;4973817;28;20479;-87
2021/03/19 07:56:32;;;;;;;5.18;3.15;;;;;;;3.72;67.98;100621.63;4992586;28;20054;-87
2021/03/19 07:59:16;;;;;;;5.95;3.45;;;;;;;3.74;66.96;100624.22;4973180;28;20054;-87
2021/03/19 08:02:04;;;;;;;6.00;3.75;;;;;;;3.81;68.24;100635.41;4974394;28;20051;-87
2021/03/19 08:04:43;;;;;;;10.18;2.80;;;;;;;3.83;67.22;100644.03;4977306;28;20109;-87
2021/03/19 08:07:15;;;;;;;6.63;3.05;;;;;;;3.87;67.18;100637.91;4993233;28;20047;-87
2021/03/19 08:09:51;;;;;;;6.32;3.40;;;;;;;3.93;67.71;100639.56;4978516;28;20062;-87
2021/03/19 08:12:48;;;;;;;5.32;3.40;;;;;;;3.95;66.79;100646.47;4994791;28;20046;-87
2021/03/19 08:15:53;;;;;;;10.77;3.42;;;;;;;4.01;66.62;100648.13;4995328;28;20050;-86
2021/03/19 08:18:27;;;;;;;3.72;2.50;;;;;;;4.08;67.71;100647.16;4997733;28;20060;-87
2021/03/19 08:21:16;;;;;;;6.82;2.83;;;;;;;4.12;67.36;100648.81;4997672;28;20046;-87
2021/03/19 08:24:32;;;;;;;2.85;2.25;;;;;;;4.19;66.74;100660.03;4996237;28;20054;-86
2021/03/19 08:27:40;;;;;;;4.03;2.47;;;;;;;4.26;66.78;100660.78;4996084;28;20089;-87
2021/03/19 08:30:26;;;;;;;6.93;2.30;;;;;;;4.34;68.19;100660.66;4996566;28;20051;-88
2021/03/19 08:33:15;;;;;;;3.95;1.95;;;;;;;4.36;66.66;100658.88;4996181;28;20056;-88
2021/03/19 08:36:04;;;;;;;3.65;2.30;;;;;;;4.42;66.67;100664.84;4997397;28;20097;-88
2021/03/19 08:38:40;;;;;;;3.45;2.30;;;;;;;4.52;68.23;100675.13;4995306;28;20058;-88
2021/03/19 08:41:14;;;;;;;2.47;1.90;;;;;;;4.55;66.94;100675.94;4976840;28;20050;-88
2021/03/19 08:43:51;;;;;;;4.47;2.15;;;;;;;4.61;66.56;100674.09;4977140;28;20066;-88
2021/03/19 08:46:51;;;;;;;2.70;1.80;;;;;;;4.66;65.98;100674.88;4977780;28;20046;-88
2021/03/19 08:49:23;;;;;;;6.35;2.35;;;;;;;4.76;66.02;100671.22;4987536;28;20092;-89
2021/03/19 08:51:52;;;;;;;7.53;2.05;;;;;;;4.83;67.53;100672.81;4995725;28;20049;-87
2021/03/19 08:54:30;;;;;;;4.32;1.75;;;;;;;4.89;67.22;100678.81;4995738;28;20051;-88
2021/03/19 08:57:03;;;;;;;4.78;2.10;;;;;;;4.95;65.74;100683.94;4996256;28;20560;-88
2021/03/19 08:59:36;;;;;;;2.85;1.80;;;;;;;5.02;65.40;100682.94;4976419;28;20050;-88
2021/03/19 09:02:02;;;;;;;5.15;2.17;;;;;;;5.11;66.96;100683.63;4977676;28;20417;-88
2021/03/19 09:04:57;;;;;;;2.63;1.80;;;;;;;5.14;65.20;100681.84;4990794;28;20085;-88
2021/03/19 09:07:38;;;;;;;3.13;1.63;;;;;;;5.24;67.13;100685.13;4995845;28;20046;-88
2021/03/19 09:10:15;;;;;;;3.70;1.75;;;;;;;5.30;65.37;100685.00;4983173;28;20058;-87
2021/03/19 09:12:57;;;;;;;4.18;2.05;;;;;;;5.37;65.09;100690.06;4976124;28;20061;-88
2021/03/19 09:15:36;;;;;;;2.63;1.70;;;;;;;5.45;66.31;100693.41;4976215;28;20050;-88
2021/03/19 09:18:11;;;;;;;;;;;;;;;5.51;64.86;100690.69;4977799;28;20058;-88
2021/03/19 09:20:38;;;;;;;2.60;1.80;;;;;;;5.60;66.92;100689.59;4975863;28;20414;-88
2021/03/19 09:23:07;;;;;;;2.33;1.50;;;;;;;5.63;65.75;100699.13;4976031;28;20051;-88
2021/03/19 09:25:40;;;;;;;2.22;1.63;;;;;;;5.66;65.24;100701.69;4975804;28;20058;-88
2021/03/19 09:28:19;;;;;;;3.90;1.67;;;;;;;5.72;65.17;100702.41;4977152;28;20050;-88
2021/03/19 09:30:53;;;;;;;4.13;1.75;;;;;;;5.80;65.73;100715.31;4975701;28;20284;-87
2021/03/19 09:33:44;;;;;;;2.92;1.70;;;;;;;5.85;64.67;100713.47;4976811;28;20059;-88
2021/03/19 09:36:49;;;;;;;1.98;1.55;;;;;;;5.94;63.51;100722.00;5034813;23;20473;-85
2021/03/19 09:39:53;;;;;;;3.25;1.42;;;;;;;6.02;63.18;100717.44;4996772;28;20050;-86
2021/03/19 09:42:22;;;;;;;1.88;1.52;;;;;;;6.12;65.70;100716.38;4996244;28;20046;-85
2021/03/19 09:44:58;;;;;;;2.15;1.60;;;;;;;6.19;65.82;100717.09;4995810;28;20082;-84
2021/03/19 09:47:31;;;;;;;3.13;1.92;;;;;;;6.28;65.78;100715.16;4995214;28;20043;-85
2021/03/19 09:50:13;;;;;;;2.53;1.50;;;;;;;6.34;63.87;100725.47;4994678;28;20046;-85
2021/03/19 09:52:54;;;;;;;2.60;1.50;;;;;;;6.43;63.41;100713.94;4996104;28;20054;-85
2021/03/19 09:55:25;;;;;;;1.83;1.40;;;;;;;6.55;64.56;100716.25;4994462;28;20047;-85
2021/03/19 09:57:51;;;;;;;1.95;1.48;;;;;;;6.65;65.27;100720.34;4994899;28;20050;-85
2021/03/19 10:00:22;;;;;;;3.20;1.65;;;;;;;6.74;64.46;100721.03;4995205;28;20050;-85
2021/03/19 10:02:51;;;;;;;2.78;1.60;;;;;;;6.86;65.61;100717.22;4982844;28;20057;-85
2021/03/19 10:05:19;;;;;;;2.95;1.83;;;;;;;6.96;65.04;100708.25;4977044;28;20055;-85
2021/03/19 10:07:46;;;;;;;3.20;1.80;;;;;;;7.08;65.36;100716.66;4981591;28;20432;-84
2021/03/19 10:10:36;;;;;;;2.50;1.45;;;;;;;7.15;62.36;100708.59;4995563;28;20057;-85
2021/03/19 10:13:03;;;;;;;2.50;1.63;;;;;;;7.28;64.78;100703.00;4994467;28;20050;-85
2021/03/19 10:15:29;;;;;;;3.70;1.67;;;;;;;7.36;64.97;100711.53;4994092;28;20050;-85
2021/03/19 10:17:59;;;;;;;4.85;1.70;;;;;;;7.46;63.80;100716.50;4993601;28;20145;-85
2021/03/19 10:20:39;;;;;;;3.40;1.90;;;;;;;7.54;62.23;100706.66;4994141;28;20046;-85
2021/03/19 10:23:09;;;;;;;5.35;2.33;;;;;;;7.65;63.66;100715.06;4994409;28;20054;-84
2021/03/19 10:25:40;;;;;;;4.28;1.90;;;;;;;7.76;64.42;100709.50;4993166;28;20059;-85
2021/03/19 10:28:20;;;;;;;3.60;2.03;;;;;;;7.87;63.33;100708.31;4994187;28;20050;-85
2021/03/19 10:30:58;;;;;;;6.07;1.90;;;;;;;7.99;62.91;100702.72;4986614;28;20047;-84
2021/03/19 10:33:35;;;;;;;2.63;1.83;;;;;;;8.10;62.82;100715.47;4981264;28;20050;-84
2021/03/19 10:36:13;;;;;;;6.88;1.90;;;;;;;8.21;62.58;100715.16;4995066;28;20043;-85
2021/03/19 10:38:51;;;;;;;3.05;1.45;;;;;;;8.31;61.89;100713.09;4994008;28;20054;-84
2021/03/19 10:41:29;;;;;;;3.10;1.58;;;;;;;8.42;61.63;100712.75;4993757;28;20061;-84
2021/03/19 10:43:58;;;;;;;3.28;1.30;;;;;;;8.54;62.83;100725.50;4993918;28;20065;-85
2021/03/19 10:46:33;;;;;;;4.53;1.83;;;;;;;8.64;61.96;100722.56;4974347;28;20055;-84
2021/03/19 10:49:05;;;;;;;4.97;1.25;;;;;;;8.75;63.02;100714.34;4974432;28;20054;-85
2021/03/19 10:51:39;;;;;;;2.53;1.48;;;;;;;8.87;62.05;100727.03;4975323;28;20050;-85
2021/03/19 10:54:21;;;;;;;1.85;1.10;;;;;;;8.96;59.76;100715.34;4974089;28;20055;-84
2021/03/19 10:56:53;;;;;;;1.15;1.05;;;;;;;9.09;61.01;100719.25;4975407;28;20051;-84
2021/03/19 10:59:31;;;;;;;1.30;1.03;;;;;;;9.20;59.93;100721.50;4984768;28;20050;-84
2021/03/19 11:02:12;;;;;;;1.67;1.10;;;;;;;9.33;58.97;100721.06;4993334;28;20050;-85
2021/03/19 11:04:48;;;;;;;2.38;1.38;;;;;;;9.48;61.97;100731.03;4974632;28;20046;-86
2021/03/19 11:07:26;;;;;;;1.40;1.10;;;;;;;9.61;59.40;100727.94;4975327;28;20219;-85
2021/03/19 11:10:06;;;;;;;1.77;1.02;;;;;;;9.75;60.00;100728.28;4974060;28;20101;-86
2021/03/19 11:12:55;;;;;;;1.95;1.15;;;;;;;9.95;59.81;100731.94;4974144;28;20051;-85
2021/03/19 11:15:31;;;;;;;2.47;1.45;;;;;;;10.17;59.29;100725.84;4988559;28;20061;-85
2021/03/19 11:18:22;;;;;;;2.95;1.05;;;;;;;10.39;60.20;100727.59;4978119;28;20113;-87
2021/03/19 11:21:03;;;;;;;1.98;1.25;;;;;;;10.71;63.86;100719.31;4975104;28;20065;-86
2021/03/19 11:24:07;;;;;;;2.05;1.00;;;;;;;11.10;55.97;100726.41;4974200;28;20051;-85
2021/03/19 11:26:35;;;;;;;3.42;1.40;;;;;;;11.58;61.89;100729.56;4984775;28;20057;-86
2021/03/19 11:29:15;;;;;;;1.00;0.90;;;;;;;12.04;59.57;100724.88;4975111;28;20133;-87
2021/03/19 11:32:25;;;;;;;1.52;1.00;;;;;;;12.58;59.02;100727.56;4973792;28;20054;-86
2021/03/19 11:34:55;;;;;;;1.02;0.88;;;;;;;13.26;61.97;100725.88;4973413;28;20097;-86
2021/03/19 11:37:25;;;;;;;1.42;0.98;;;;;;;13.89;64.25;100714.66;4972906;28;20059;-89
2021/03/19 11:40:00;;;;;;;1.08;0.82;;;;;;;14.57;57.45;100709.94;4975031;28;20061;-86
2021/03/19 11:42:31;;;;;;;2.85;1.05;;;;;;;15.22;60.46;100707.91;4974844;28;20062;-86
2021/03/19 11:45:08;;;;;;;1.63;1.00;;;;;;;15.77;54.21;100714.22;4973327;28;20129;-86
2021/03/19 11:47:38;;;;;;;1.50;1.00;;;;;;;16.26;55.17;100725.28;4986297;28;20081;-86
2021/03/19 11:50:20;;;;;;;1.33;0.90;;;;;;;16.63;51.98;100714.03;4994130;28;20062;-86
2021/03/19 11:52:48;;;;;;;1.90;0.90;;;;;;;16.94;53.52;100724.41;4992793;28;20496;-86
2021/03/19 11:55:20;;;;;;;2.28;1.25;;;;;;;17.11;48.26;100735.69;4993989;28;20055;-86
2021/03/19 11:57:48;;;;;;;;;;;;;;;17.22;49.90;100742.94;4994572;28;20401;-86
2021/03/19 12:00:23;;;;;;;4.05;1.00;;;;;;;17.22;47.53;100738.47;4993413;28;19926;-86
2021/03/19 12:02:51;;;;;;;1.90;0.90;;;;;;;17.12;50.14;100737.41;4973650;28;20054;-86
2021/03/19 12:05:20;;;;;;;1.15;1.05;;;;;;;16.88;46.47;100744.28;4973155;28;20054;-86
2021/03/19 12:07:47;;;;;;;1.42;1.10;;;;;;;16.64;47.90;100733.50;4974705;28;20051;-86
2021/03/19 12:10:14;;;;;;;1.60;1.05;;;;;;;16.42;48.71;100734.94;4973282;28;20050;-86